Time;durP1;ratioP1;P1;durP2;ratioP2;P2;SDS_P1;SDS_P2;PMS_P1;PMS_P2;Temp;Humidity;BMP_temperature;BMP_pressure;BME280_temperature;BME280_humidity;BME280_pressure;Samples;Min_cycle;Max_cycle;Signal;HPM_P1;HPM_P2
2023/04/16 00:01:21;;;;;;;1.00;0.47;;;;;;;13.09;62.79;94900.78;5132481;28;20435;-60
2023/04/16 00:03:51;;;;;;;0.30;0.20;;;;;;;13.07;63.02;94902.16;5105557;28;20540;-60
2023/04/16 00:06:20;;;;;;;0.30;0.20;;;;;;;12.67;63.47;94850.47;5131197;27;20834;-60
2023/04/16 00:08:49;;;;;;;0.90;0.73;;;;;;;12.95;63.70;94886.66;5111547;28;21069;-60
2023/04/16 00:11:17;;;;;;;0.30;0.20;;;;;;;13.01;63.85;94898.78;5113243;28;20439;-60
2023/04/16 00:13:45;;;;;;;0.30;0.20;;;;;;;12.90;64.11;94888.63;5131696;28;20469;-60
2023/04/16 00:16:14;;;;;;;0.87;0.87;;;;;;;12.92;64.32;94891.75;5131759;27;20470;-60
2023/04/16 00:18:42;;;;;;;0.30;0.20;;;;;;;12.88;63.80;94885.44;5131395;28;20538;-60
2023/04/16 00:21:12;;;;;;;0.30;0.20;;;;;;;12.95;63.78;94894.63;5130825;28;20474;-60
2023/04/16 00:23:40;;;;;;;0.30;0.20;;;;;;;12.97;63.60;94895.13;5131906;27;20963;-60
2023/04/16 00:26:08;;;;;;;0.30;0.30;;;;;;;12.80;64.12;94894.13;5135252;27;20463;-60
2023/04/16 00:28:37;;;;;;;0.37;0.27;;;;;;;12.80;64.47;94894.13;5135628;27;20435;-60
2023/04/16 00:31:05;;;;;;;0.40;0.40;;;;;;;12.81;64.38;94895.69;5134876;27;20446;-60
2023/04/16 00:33:34;;;;;;;0.40;0.40;;;;;;;12.75;64.41;94893.09;5135050;27;20774;-60
2023/04/16 00:36:02;;;;;;;0.70;0.30;;;;;;;12.71;65.07;94894.00;5134848;27;20474;-60
2023/04/16 00:38:32;;;;;;;0.30;0.20;;;;;;;12.57;64.91;94882.53;5134731;27;20443;-60
2023/04/16 00:41:00;;;;;;;1.03;1.03;;;;;;;12.54;64.98;94891.88;5135519;27;20446;-60
2023/04/16 00:43:29;;;;;;;1.10;0.60;;;;;;;12.44;66.07;94891.25;5135493;27;20435;-60
2023/04/16 00:45:58;;;;;;;0.80;0.43;;;;;;;12.01;67.14;94898.56;5109254;27;20442;-60
2023/04/16 00:48:27;;;;;;;0.40;0.30;;;;;;;12.13;67.32;94893.59;5134936;27;20457;-60
2023/04/16 00:50:56;;;;;;;0.30;0.20;;;;;;;12.24;66.73;94896.91;5134628;27;20449;-60
2023/04/16 00:53:24;;;;;;;0.77;0.40;;;;;;;12.09;66.18;94879.34;5135199;27;20526;-60
2023/04/16 00:55:56;;;;;;;0.30;0.20;;;;;;;12.18;67.15;94900.69;5134976;27;20529;-60
2023/04/16 00:58:25;;;;;;;0.30;0.20;;;;;;;11.43;67.45;94799.81;5134439;27;20474;-60
2023/04/16 01:00:53;;;;;;;0.30;0.20;;;;;;;12.07;67.71;94894.75;5135252;27;20439;-60
2023/04/16 01:03:22;;;;;;;0.50;0.30;;;;;;;12.01;67.23;94898.56;5135102;27;20830;-60
2023/04/16 01:05:51;;;;;;;0.30;0.20;;;;;;;11.92;67.56;94902.94;5135012;27;20442;-61
2023/04/16 01:08:21;;;;;;;0.40;0.40;;;;;;;11.92;67.22;94902.94;5134586;27;20431;-60
2023/04/16 01:10:50;;;;;;;0.30;0.30;;;;;;;11.98;67.20;94902.59;5134934;27;20442;-60
2023/04/16 01:13:19;;;;;;;0.30;0.20;;;;;;;11.97;66.75;94894.88;5135019;27;20514;-60
2023/04/16 01:15:48;;;;;;;0.30;0.20;;;;;;;12.00;66.90;94902.28;5134396;27;20470;-60
2023/04/16 01:18:17;;;;;;;0.50;0.50;;;;;;;11.62;67.20;94860.84;5134979;27;20458;-60
2023/04/16 01:20:47;;;;;;;0.37;0.27;;;;;;;12.02;66.98;94908.88;5134332;27;20838;-60
2023/04/16 01:23:17;;;;;;;0.30;0.20;;;;;;;12.08;66.35;94899.00;5134431;27;20442;-60
2023/04/16 01:25:45;;;;;;;0.40;0.30;;;;;;;10.67;67.07;94707.19;5134233;27;20477;-60
2023/04/16 01:28:14;;;;;;;0.50;0.50;;;;;;;11.69;67.79;94906.47;5134712;27;20439;-60
2023/04/16 01:30:42;;;;;;;0.30;0.20;;;;;;;11.49;69.17;94910.09;5134304;27;21017;-60
2023/04/16 01:33:11;;;;;;;1.23;0.30;;;;;;;11.42;70.43;94912.31;5134459;27;20439;-60
2023/04/16 01:35:40;;;;;;;0.80;0.30;;;;;;;11.20;71.83;94912.06;5133121;27;20852;-60
2023/04/16 01:38:10;;;;;;;0.30;0.20;;;;;;;11.42;70.99;94910.47;5134347;27;20438;-60
2023/04/16 01:40:39;;;;;;;0.30;0.20;;;;;;;11.52;70.47;94906.88;5134171;27;20467;-60
2023/04/16 01:43:07;;;;;;;0.30;0.20;;;;;;;10.78;73.29;94852.56;5134348;27;20435;-60
2023/04/16 01:45:35;;;;;;;0.30;0.30;;;;;;;11.26;72.32;94895.00;5130163;27;20431;-60
2023/04/16 01:48:04;;;;;;;0.30;0.20;;;;;;;10.57;71.52;94774.38;5124964;27;20511;-60
2023/04/16 01:50:33;;;;;;;0.30;0.20;;;;;;;11.41;71.29;94900.91;5121899;27;20431;-60
2023/04/16 01:53:03;;;;;;;0.30;0.20;;;;;;;11.37;71.17;94896.47;5133834;27;20449;-60
2023/04/16 01:55:34;;;;;;;0.40;0.30;;;;;;;11.35;71.20;94894.09;5133397;27;20445;-60
2023/04/16 01:58:02;;;;;;;0.40;0.30;;;;;;;11.44;70.97;94899.56;5133629;27;20470;-60
2023/04/16 02:00:30;;;;;;;0.40;0.30;;;;;;;11.11;70.44;94845.56;5133513;27;20510;-60
2023/04/16 02:02:59;;;;;;;0.50;0.37;;;;;;;11.39;71.31;94891.66;5133580;27;20445;-59
2023/04/16 02:05:27;;;;;;;0.40;0.30;;;;;;;11.39;71.19;94895.09;5107457;27;20434;-60
2023/04/16 02:07:56;;;;;;;0.33;0.27;;;;;;;11.49;70.77;94897.63;5132476;27;20462;-60
2023/04/16 02:10:24;;;;;;;0.30;0.20;;;;;;;11.03;70.12;94816.25;5132761;27;20471;-59
2023/04/16 02:12:54;;;;;;;3.20;0.30;;;;;;;11.52;70.04;94890.97;5132627;27;20473;-60
2023/04/16 02:15:24;;;;;;;2.83;0.40;;;;;;;11.53;70.24;94884.59;5132949;27;20435;-59
2023/04/16 02:17:55;;;;;;;0.40;0.30;;;;;;;11.36;71.18;94884.25;5132581;27;20466;-60
2023/04/16 02:20:24;;;;;;;0.30;0.20;;;;;;;11.28;71.84;94888.31;5132816;27;20467;-60
2023/04/16 02:22:52;;;;;;;0.30;0.20;;;;;;;11.25;71.88;94878.31;5133665;27;20429;-59
2023/04/16 02:25:21;;;;;;;0.40;0.30;;;;;;;11.31;71.95;94877.16;5133122;27;20495;-59
2023/04/16 02:27:50;;;;;;;0.30;0.20;;;;;;;11.34;70.82;94873.16;5133485;27;20519;-60
2023/04/16 02:30:20;;;;;;;0.30;0.20;;;;;;;11.14;72.22;94858.28;5133248;27;20439;-60
2023/04/16 02:32:48;;;;;;;0.30;0.20;;;;;;;11.26;71.90;94874.56;5133015;27;21015;-60
2023/04/16 02:35:17;;;;;;;0.30;0.20;;;;;;;11.28;71.32;94875.06;5133321;27;20858;-59
2023/04/16 02:37:45;;;;;;;0.40;0.30;;;;;;;11.40;70.47;94864.06;5126849;27;20479;-59
2023/04/16 02:40:13;;;;;;;0.40;0.30;;;;;;;11.58;70.13;94865.16;5126446;27;20453;-60
2023/04/16 02:42:42;;;;;;;0.50;0.30;;;;;;;11.34;69.23;94818.22;5133149;27;20470;-60
2023/04/16 02:45:11;;;;;;;0.30;0.20;;;;;;;11.80;68.28;94868.06;5132100;27;20474;-59
2023/04/16 02:47:41;;;;;;;0.40;0.30;;;;;;;11.90;67.63;94868.72;5132870;27;20522;-60
2023/04/16 02:50:10;;;;;;;0.30;0.20;;;;;;;11.90;67.09;94875.88;5132907;27;20430;-59
2023/04/16 02:52:38;;;;;;;0.40;0.40;;;;;;;11.82;67.76;94866.69;5132921;27;20434;-59
2023/04/16 02:55:07;;;;;;;0.40;0.30;;;;;;;11.87;68.07;94861.31;5130287;27;20467;-60
2023/04/16 02:57:35;;;;;;;0.50;0.50;;;;;;;11.83;68.70;94864.84;5122099;27;20482;-59
2023/04/16 03:00:04;;;;;;;0.30;0.20;;;;;;;11.88;68.11;94870.06;5132304;27;20444;-59
2023/04/16 03:02:33;;;;;;;0.30;0.30;;;;;;;12.00;67.11;94873.06;5132928;27;20963;-59
2023/04/16 03:05:03;;;;;;;0.30;0.20;;;;;;;11.90;67.28;94870.56;5132852;27;20431;-59
2023/04/16 03:07:31;;;;;;;0.30;0.30;;;;;;;11.83;68.88;94872.81;5133172;27;20437;-60
2023/04/16 03:09:59;;;;;;;0.30;0.20;;;;;;;11.85;69.34;94873.28;5132122;27;20441;-60
2023/04/16 03:12:27;;;;;;;0.33;0.27;;;;;;;11.90;69.15;94871.34;5132986;27;20435;-60
2023/04/16 03:14:56;;;;;;;0.30;0.20;;;;;;;11.90;69.49;94870.56;5132557;28;20959;-65
2023/04/16 03:17:24;;;;;;;0.40;0.30;;;;;;;11.93;69.13;94872.66;5132508;28;20466;-65
2023/04/16 03:19:53;;;;;;;0.30;0.30;;;;;;;11.86;69.95;94873.03;5132210;28;20435;-65
2023/04/16 03:22:22;;;;;;;0.60;0.60;;;;;;;11.83;70.27;94872.81;5132594;27;20514;-64
2023/04/16 03:24:51;;;;;;;0.40;0.30;;;;;;;11.61;70.42;94843.34;5106516;28;20466;-65
2023/04/16 03:27:19;;;;;;;0.30;0.20;;;;;;;11.79;70.34;94877.13;5132120;28;20469;-65
2023/04/16 03:29:48;;;;;;;0.30;0.20;;;;;;;11.71;71.04;94885.72;5132753;27;20449;-65
2023/04/16 03:32:16;;;;;;;0.30;0.20;;;;;;;11.81;70.65;94886.38;5131896;28;20864;-64
2023/04/16 03:34:45;;;;;;;0.30;0.30;;;;;;;11.90;70.43;94878.53;5132870;28;20811;-64
2023/04/16 03:37:13;;;;;;;0.30;0.20;;;;;;;11.87;70.65;94877.25;5132211;27;20470;-64
2023/04/16 03:39:43;;;;;;;0.30;0.20;;;;;;;11.94;70.40;94877.66;5132465;28;20466;-65
2023/04/16 03:42:11;;;;;;;0.30;0.20;;;;;;;11.80;70.50;94850.25;5132236;28;20496;-64
2023/04/16 03:44:40;;;;;;;0.30;0.20;;;;;;;11.69;71.25;94870.06;5132292;28;20445;-65
2023/04/16 03:47:08;;;;;;;1.90;0.30;;;;;;;11.54;72.49;94874.75;5132499;27;20426;-65
2023/04/16 03:49:36;;;;;;;0.30;0.30;;;;;;;11.51;73.01;94876.09;5132424;28;20438;-66
2023/04/16 03:52:05;;;;;;;0.40;0.33;;;;;;;11.64;71.52;94870.09;5132699;27;20426;-66
2023/04/16 03:54:33;;;;;;;0.30;0.30;;;;;;;11.54;72.12;94880.84;5132403;28;20446;-66
2023/04/16 03:57:03;;;;;;;0.87;0.87;;;;;;;11.66;72.21;94862.66;5132433;28;20439;-66
2023/04/16 03:59:31;;;;;;;1.57;0.53;;;;;;;11.90;70.90;94873.22;5134814;27;20446;-66
2023/04/16 04:02:00;;;;;;;0.57;0.53;;;;;;;12.06;70.19;94879.91;5136266;27;20427;-65
2023/04/16 04:04:28;;;;;;;0.30;0.20;;;;;;;11.88;71.47;94881.50;5136637;27;20821;-66
2023/04/16 04:06:57;;;;;;;0.57;0.57;;;;;;;11.76;72.10;94875.81;5109408;27;20526;-66
2023/04/16 04:09:25;;;;;;;1.47;1.47;;;;;;;11.88;71.06;94860.25;5136185;27;20439;-66
2023/04/16 04:11:53;;;;;;;0.70;0.30;;;;;;;12.18;70.25;94866.16;5136277;27;20446;-66
2023/04/16 04:14:23;;;;;;;0.40;0.30;;;;;;;12.18;69.64;94869.63;5135981;27;20445;-65
2023/04/16 04:16:51;;;;;;;0.30;0.27;;;;;;;12.24;69.89;94867.66;5136424;27;20439;-66
2023/04/16 04:19:20;;;;;;;0.40;0.30;;;;;;;12.02;70.01;94869.06;5135841;27;20850;-65
2023/04/16 04:21:48;;;;;;;0.50;0.40;;;;;;;11.87;70.46;94868.47;5135862;27;20445;-65
2023/04/16 04:24:16;;;;;;;1.70;0.47;;;;;;;11.64;71.00;94845.44;5135047;27;20585;-65
2023/04/16 04:26:45;;;;;;;0.53;0.50;;;;;;;12.04;69.35;94874.84;5135684;27;20491;-60
2023/04/16 04:29:14;;;;;;;0.40;0.30;;;;;;;11.46;69.83;94796.56;5136005;27;20502;-63
2023/04/16 04:31:43;;;;;;;0.40;0.30;;;;;;;11.29;73.21;94895.22;5136101;27;20534;-62
2023/04/16 04:34:12;;;;;;;1.37;0.53;;;;;;;11.11;74.49;94888.00;5135688;27;20861;-62
2023/04/16 04:36:40;;;;;;;1.27;0.90;;;;;;;11.22;75.29;94884.16;5135371;27;20427;-63
2023/04/16 04:39:08;;;;;;;1.23;1.17;;;;;;;11.19;76.15;94890.03;5135731;27;20507;-62
2023/04/16 04:41:37;;;;;;;1.13;0.93;;;;;;;11.12;77.97;94888.78;5135669;27;20497;-62
2023/04/16 04:44:05;;;;;;;5.50;0.97;;;;;;;11.14;77.72;94876.03;5135055;27;20961;-62
2023/04/16 04:46:34;;;;;;;2.43;1.90;;;;;;;11.19;77.21;94894.53;5135400;27;20438;-62
2023/04/16 04:49:03;;;;;;;1.17;1.13;;;;;;;10.71;84.83;94893.72;5135134;27;20441;-61
2023/04/16 04:51:32;;;;;;;0.63;0.63;;;;;;;10.17;97.25;94893.91;5134831;27;20449;-61
2023/04/16 04:54:00;;;;;;;0.40;0.30;;;;;;;10.78;92.45;94891.53;5135052;27;20819;-61
2023/04/16 04:56:28;;;;;;;1.27;0.30;;;;;;;11.26;88.05;94887.03;5135605;27;20431;-61
2023/04/16 04:58:56;;;;;;;0.37;0.30;;;;;;;11.79;83.38;94888.50;5101076;28;20482;-62
2023/04/16 05:01:25;;;;;;;0.30;0.20;;;;;;;12.08;80.56;94897.13;5128512;27;20930;-61
2023/04/16 05:03:53;;;;;;;0.40;0.30;;;;;;;11.79;78.42;94883.19;5135047;27;20443;-61
2023/04/16 05:06:23;;;;;;;0.90;0.73;;;;;;;11.45;79.86;94888.66;5135102;27;20439;-61
2023/04/16 05:08:51;;;;;;;0.60;0.60;;;;;;;11.60;79.51;94882.38;5134914;27;20496;-61
2023/04/16 05:11:20;;;;;;;0.50;0.50;;;;;;;11.25;81.05;94885.47;5134425;27;20467;-61
2023/04/16 05:13:48;;;;;;;0.40;0.30;;;;;;;11.46;80.75;94889.44;5135022;27;20439;-61
2023/04/16 05:16:16;;;;;;;0.40;0.30;;;;;;;11.94;78.78;94888.28;5134599;27;20530;-61
2023/04/16 05:18:45;;;;;;;5.23;0.93;;;;;;;12.12;77.99;94889.34;5134562;27;20470;-61
2023/04/16 05:21:13;;;;;;;0.43;0.33;;;;;;;12.00;78.00;94894.31;5134068;27;20514;-60
2023/04/16 05:23:43;;;;;;;1.47;1.37;;;;;;;12.19;77.98;94897.78;5134298;27;20434;-60
2023/04/16 05:26:11;;;;;;;1.50;1.40;;;;;;;12.75;75.71;94895.75;5134019;27;20939;-55
2023/04/16 05:28:39;;;;;;;0.37;0.27;;;;;;;12.65;72.94;94829.47;5134274;27;20954;-56
2023/04/16 05:31:08;;;;;;;0.50;0.50;;;;;;;13.09;72.41;94890.13;5134123;27;20439;-56
2023/04/16 05:33:36;;;;;;;0.53;0.43;;;;;;;13.31;68.83;94852.97;5134873;27;20467;-56
2023/04/16 05:36:05;;;;;;;0.30;0.30;;;;;;;13.63;70.35;94888.53;5133244;27;20439;-56
2023/04/16 05:38:33;;;;;;;0.40;0.30;;;;;;;13.38;70.55;94862.44;5133802;27;20470;-56
2023/04/16 05:41:03;;;;;;;0.80;0.50;;;;;;;13.19;72.86;94883.84;5134423;27;20439;-56
2023/04/16 05:43:31;;;;;;;0.83;0.77;;;;;;;12.47;77.12;94888.03;5134002;27;20526;-63
2023/04/16 05:45:59;;;;;;;1.40;1.03;;;;;;;11.59;84.09;94893.25;5134400;27;20454;-63
2023/04/16 05:48:28;;;;;;;1.90;1.80;;;;;;;11.49;89.30;94889.66;5134061;27;20442;-62
2023/04/16 05:50:56;;;;;;;0.50;0.40;;;;;;;11.64;84.53;94895.88;5134064;27;20514;-62
2023/04/16 05:53:24;;;;;;;1.30;1.30;;;;;;;12.01;83.49;94894.06;5133469;27;20470;-61
2023/04/16 05:55:53;;;;;;;0.40;0.30;;;;;;;11.60;82.03;94903.59;5133614;27;20435;-62
2023/04/16 05:58:23;;;;;;;1.37;0.73;;;;;;;11.83;80.29;94908.13;5131896;27;20542;-62
2023/04/16 06:00:51;;;;;;;0.70;0.67;;;;;;;12.58;75.56;94892.88;5131953;27;20438;-62
2023/04/16 06:03:19;;;;;;;1.00;1.00;;;;;;;12.31;74.60;94906.09;5130947;27;20456;-63
2023/04/16 06:05:48;;;;;;;0.40;0.40;;;;;;;12.84;73.53;94898.56;5130791;27;20980;-63
2023/04/16 06:08:16;;;;;;;0.60;0.60;;;;;;;12.99;72.65;94886.84;5128267;27;20468;-64
2023/04/16 06:10:46;;;;;;;0.40;0.30;;;;;;;12.91;71.67;94799.75;5121730;27;20442;-65
2023/04/16 06:13:15;;;;;;;0.67;0.67;;;;;;;14.32;67.14;94874.75;5132208;27;20963;-64
2023/04/16 06:15:44;;;;;;;0.40;0.30;;;;;;;14.25;66.27;94871.69;5132613;27;20439;-64
2023/04/16 06:18:13;;;;;;;0.40;0.30;;;;;;;14.54;64.85;94879.31;5132837;27;20927;-65
2023/04/16 06:20:41;;;;;;;0.50;0.30;;;;;;;14.99;63.47;94875.47;5133389;27;20431;-64
2023/04/16 06:23:10;;;;;;;0.60;0.60;;;;;;;15.81;63.13;94861.47;5132293;27;20438;-64
2023/04/16 06:25:38;;;;;;;1.47;1.40;;;;;;;15.39;61.43;94841.53;5132925;27;20474;-62
2023/04/16 06:28:06;;;;;;;2.10;1.30;;;;;;;16.38;60.00;94856.75;5132878;27;20435;-64
2023/04/16 06:30:34;;;;;;;1.07;0.50;;;;;;;16.80;58.09;94857.81;5133278;27;20431;-65
2023/04/16 06:33:04;;;;;;;0.40;0.30;;;;;;;17.38;56.48;94843.75;5105836;27;20453;-66
2023/04/16 06:35:33;;;;;;;0.40;0.30;;;;;;;17.82;55.83;94848.53;5133085;27;20927;-65
2023/04/16 06:38:01;;;;;;;0.40;0.40;;;;;;;17.59;55.59;94853.41;5133119;27;20491;-66
2023/04/16 06:40:29;;;;;;;1.10;0.70;;;;;;;17.74;53.49;94852.84;5132845;27;20475;-67
2023/04/16 06:42:58;;;;;;;0.57;0.43;;;;;;;17.43;54.67;94848.91;5132980;27;20635;-69
2023/04/16 06:45:26;;;;;;;0.40;0.30;;;;;;;17.31;55.23;94844.22;5132882;27;20965;-68
2023/04/16 06:47:54;;;;;;;0.73;0.73;;;;;;;18.00;54.19;94847.31;5133321;27;20446;-71
2023/04/16 06:50:25;;;;;;;0.50;0.50;;;;;;;18.37;52.01;94794.59;5133041;27;20455;-68
2023/04/16 06:52:53;;;;;;;0.50;0.30;;;;;;;18.59;53.64;94828.38;5133186;27;20521;-66
2023/04/16 06:55:22;;;;;;;1.40;1.30;;;;;;;18.12;54.28;94822.44;5132731;27;20431;-65
2023/04/16 06:57:50;;;;;;;0.60;0.40;;;;;;;18.66;52.38;94826.72;5133064;27;20434;-64
2023/04/16 07:00:19;;;;;;;0.50;0.40;;;;;;;17.88;51.97;94819.66;5132033;27;20485;-64
2023/04/16 07:02:47;;;;;;;0.60;0.50;;;;;;;18.46;51.10;94829.41;5132623;27;20920;-64
2023/04/16 07:05:16;;;;;;;0.50;0.40;;;;;;;19.05;49.74;94824.56;5132153;27;20951;-63
2023/04/16 07:07:45;;;;;;;0.50;0.40;;;;;;;18.93;50.00;94831.47;5132590;27;20482;-63
2023/04/16 07:10:14;;;;;;;0.60;0.60;;;;;;;20.11;48.38;94823.28;5105495;27;20445;-63
2023/04/16 07:12:42;;;;;;;0.60;0.60;;;;;;;20.08;46.94;94822.06;5132215;27;20441;-65
2023/04/16 07:15:11;;;;;;;0.40;0.30;;;;;;;20.70;46.31;94828.78;5132819;28;20435;-67
2023/04/16 07:17:39;;;;;;;0.80;0.80;;;;;;;20.98;47.23;94832.22;5132325;28;20463;-70
2023/04/16 07:20:09;;;;;;;0.40;0.30;;;;;;;22.17;45.32;94822.72;5132287;27;20474;-69
2023/04/16 07:22:37;;;;;;;2.10;0.60;;;;;;;21.83;44.08;94793.84;5132713;28;20426;-68
2023/04/16 07:25:08;;;;;;;2.77;0.97;;;;;;;22.67;44.41;94816.41;5132196;27;21069;-70
2023/04/16 07:27:36;;;;;;;0.40;0.40;;;;;;;22.29;44.15;94814.50;5132161;28;20798;-72
2023/04/16 07:30:06;;;;;;;0.67;0.67;;;;;;;21.94;41.94;94808.34;5132650;28;20522;-72
2023/04/16 07:32:35;;;;;;;0.40;0.40;;;;;;;22.46;41.17;94814.09;5132370;27;20556;-72
2023/04/16 07:35:03;;;;;;;0.57;0.40;;;;;;;20.48;42.58;94800.53;5135234;27;20441;-74
2023/04/16 07:37:32;;;;;;;1.20;0.40;;;;;;;21.47;42.86;94820.00;5137144;27;20495;-74
2023/04/16 07:40:00;;;;;;;0.40;0.37;;;;;;;21.15;41.23;94769.94;5136074;27;20466;-74
2023/04/16 07:42:30;;;;;;;1.73;0.50;;;;;;;20.34;41.35;94816.25;5136729;27;20509;-77
2023/04/16 07:45:17;;;;;;;0.40;0.40;;;;;;;20.35;41.58;94817.06;5137071;27;20427;-78
2023/04/16 07:47:45;;;;;;;0.30;0.20;;;;;;;20.82;40.32;94815.28;5136491;27;20438;-77
2023/04/16 07:50:15;;;;;;;0.50;0.50;;;;;;;21.06;40.77;94814.34;5134954;27;20882;-74
2023/04/16 07:52:44;;;;;;;0.73;0.70;;;;;;;19.82;37.28;94816.28;5125626;27;20438;-73
2023/04/16 07:55:12;;;;;;;0.50;0.50;;;;;;;19.66;40.20;94807.34;5136353;27;20529;-70
2023/04/16 07:57:42;;;;;;;0.40;0.30;;;;;;;19.59;41.32;94815.19;5136378;27;20510;-70
2023/04/16 08:00:11;;;;;;;0.87;0.87;;;;;;;18.89;41.03;94819.84;5135379;27;20474;-68
2023/04/16 08:02:40;;;;;;;0.40;0.27;;;;;;;19.93;41.22;94798.56;5136252;27;20442;-69
2023/04/16 08:05:09;;;;;;;0.40;0.30;;;;;;;19.67;40.57;94803.53;5135471;27;20426;-67
2023/04/16 08:07:38;;;;;;;0.53;0.40;;;;;;;19.23;40.56;94807.88;5136031;27;20438;-66
2023/04/16 08:10:07;;;;;;;0.40;0.30;;;;;;;19.53;41.15;94808.50;5135859;27;20946;-67
2023/04/16 08:12:35;;;;;;;0.30;0.20;;;;;;;19.90;41.38;94803.84;5135881;27;20437;-68
2023/04/16 08:15:06;;;;;;;0.40;0.30;;;;;;;20.39;41.07;94801.81;5135761;27;20433;-71
2023/04/16 08:17:36;;;;;;;0.40;0.30;;;;;;;20.81;39.67;94795.63;5135574;27;20459;-74
2023/04/16 08:20:06;;;;;;;0.50;0.30;;;;;;;21.11;39.49;94789.84;5136070;27;20462;-74
2023/04/16 08:22:34;;;;;;;0.40;0.37;;;;;;;20.91;39.69;94788.94;5135428;27;20474;-68
2023/04/16 08:25:03;;;;;;;1.67;0.53;;;;;;;20.24;41.13;94785.25;5135593;27;20903;-70
2023/04/16 08:27:31;;;;;;;0.60;0.60;;;;;;;21.21;39.81;94778.53;5135564;27;20463;-66
2023/04/16 08:30:00;;;;;;;0.40;0.30;;;;;;;22.09;40.34;94761.63;5135740;27;20445;-67
2023/04/16 08:32:30;;;;;;;5.97;0.77;;;;;;;22.02;39.38;94769.59;5135258;27;20435;-66
2023/04/16 08:34:58;;;;;;;0.70;0.70;;;;;;;21.33;40.45;94771.13;5135740;27;20457;-69
2023/04/16 08:37:26;;;;;;;0.40;0.30;;;;;;;22.72;39.56;94748.59;5135464;27;20435;-66
2023/04/16 08:39:55;;;;;;;0.40;0.30;;;;;;;22.98;38.06;94745.19;5135651;27;20467;-66
2023/04/16 08:42:30;;;;;;;0.40;0.30;;;;;;;22.53;38.24;94760.19;5134849;27;20466;-68
2023/04/16 08:45:06;;;;;;;0.60;0.40;;;;;;;22.40;38.48;94753.41;5134967;27;20506;-66
2023/04/16 08:47:36;;;;;;;0.40;0.40;;;;;;;23.18;38.76;94750.16;5108817;27;20439;-64
2023/04/16 08:50:06;;;;;;;0.30;0.20;;;;;;;24.36;37.45;94747.97;5135057;27;20885;-64
2023/04/16 08:52:37;;;;;;;0.40;0.30;;;;;;;24.53;34.61;94750.06;5135238;27;20439;-64
2023/04/16 08:55:12;;;;;;;0.40;0.30;;;;;;;25.79;34.78;94744.19;5134993;27;20435;-65
2023/04/16 08:57:53;;;;;;;0.40;0.30;;;;;;;25.42;33.80;94736.19;5135145;27;20991;-65
2023/04/16 09:00:22;;;;;;;0.53;0.53;;;;;;;25.19;32.19;94741.03;5129515;27;20845;-64
2023/04/16 09:02:52;;;;;;;0.40;0.40;;;;;;;26.82;30.41;94726.38;5127048;27;20521;-65
2023/04/16 09:05:24;;;;;;;0.40;0.30;;;;;;;26.76;31.16;94711.59;5135271;27;20459;-65
2023/04/16 09:07:53;;;;;;;0.30;0.20;;;;;;;26.09;32.26;94727.66;5135240;27;20450;-62
2023/04/16 09:10:22;;;;;;;0.83;0.40;;;;;;;26.11;31.97;94725.34;5134761;27;20459;-64
2023/04/16 09:12:50;;;;;;;0.60;0.40;;;;;;;26.84;30.37;94713.94;5134588;27;20449;-62
2023/04/16 09:15:20;;;;;;;0.30;0.30;;;;;;;28.24;30.65;94722.34;5134762;27;20470;-63
2023/04/16 09:17:49;;;;;;;0.40;0.30;;;;;;;28.37;30.05;94709.84;5134289;27;20535;-62
2023/04/16 09:20:19;;;;;;;0.60;0.43;;;;;;;25.84;30.77;94711.25;5134251;27;20462;-63
2023/04/16 09:22:48;;;;;;;0.80;0.80;;;;;;;24.41;32.65;94707.75;5134300;27;20474;-64
2023/04/16 09:25:16;;;;;;;0.40;0.30;;;;;;;25.39;32.43;94714.44;5134067;27;21004;-64
2023/04/16 09:27:45;;;;;;;0.40;0.40;;;;;;;24.81;32.56;94709.75;5133876;27;20446;-64
2023/04/16 09:30:24;;;;;;;0.40;0.40;;;;;;;25.03;33.27;94706.06;5134239;27;20853;-65
2023/04/16 09:32:54;;;;;;;0.50;0.50;;;;;;;26.08;32.67;94707.88;5134097;27;20987;-64
2023/04/16 09:35:24;;;;;;;0.40;0.30;;;;;;;25.46;32.13;94703.66;5134015;27;20942;-63
2023/04/16 09:37:56;;;;;;;0.40;0.30;;;;;;;24.97;32.06;94702.13;5134252;27;20461;-63
2023/04/16 09:40:26;;;;;;;0.40;0.30;;;;;;;26.15;31.75;94699.00;5133620;27;20477;-61
2023/04/16 09:42:59;;;;;;;0.40;0.30;;;;;;;26.41;30.60;94652.50;5134216;27;20931;-63
2023/04/16 09:45:32;;;;;;;0.40;0.30;;;;;;;26.37;31.60;94652.50;5133871;27;20440;-63
2023/04/16 09:48:05;;;;;;;0.30;0.30;;;;;;;24.68;31.83;94677.81;5134265;27;20431;-63
2023/04/16 09:50:34;;;;;;;0.30;0.30;;;;;;;24.42;32.20;94689.56;5133605;27;20950;-63
2023/04/16 09:53:03;;;;;;;0.30;0.20;;;;;;;24.41;32.42;94683.38;5134189;27;20517;-63
2023/04/16 09:55:32;;;;;;;0.30;0.20;;;;;;;25.19;33.45;94689.53;5133743;27;20439;-64
2023/04/16 09:58:01;;;;;;;0.40;0.30;;;;;;;24.19;33.52;94699.78;5132969;27;20484;-65
2023/04/16 10:00:30;;;;;;;0.40;0.30;;;;;;;24.57;32.98;94659.53;5133693;27;20463;-67
2023/04/16 10:03:05;;;;;;;0.50;0.50;;;;;;;24.47;31.85;94686.53;5133600;27;20526;-68
2023/04/16 10:05:36;;;;;;;0.40;0.30;;;;;;;25.17;32.20;94662.75;5133762;27;20488;-67
2023/04/16 10:08:12;;;;;;;0.50;0.43;;;;;;;25.37;33.05;94665.22;5133250;27;20514;-68
2023/04/16 10:10:41;;;;;;;0.73;0.50;;;;;;;24.05;32.70;94672.50;5133535;27;20448;-66
2023/04/16 10:13:11;;;;;;;0.30;0.30;;;;;;;24.22;32.71;94672.75;5133300;27;20802;-65
2023/04/16 10:15:40;;;;;;;1.73;0.40;;;;;;;23.80;32.48;94678.44;5133582;27;20423;-66
2023/04/16 10:18:09;;;;;;;9.20;1.53;;;;;;;22.88;33.36;94656.59;5133381;27;20505;-67
2023/04/16 10:20:39;;;;;;;0.60;0.53;;;;;;;22.85;33.42;94662.72;5133212;27;20491;-71
2023/04/16 10:23:07;;;;;;;1.27;0.90;;;;;;;22.83;33.21;94673.13;5132994;27;20459;-73
2023/04/16 10:25:38;;;;;;;0.67;0.67;;;;;;;22.58;34.41;94668.06;5132549;27;20477;-75
2023/04/16 10:28:08;;;;;;;0.53;0.50;;;;;;;22.76;33.31;94665.69;5133258;27;20435;-73
2023/04/16 10:30:37;;;;;;;0.40;0.30;;;;;;;23.12;33.13;94672.44;5132474;27;21011;-74
2023/04/16 10:33:06;;;;;;;0.40;0.40;;;;;;;22.90;33.25;94671.31;5132817;27;20792;-70
2023/04/16 10:35:40;;;;;;;0.30;0.20;;;;;;;22.70;33.72;94670.63;5132250;27;20496;-66
2023/04/16 10:38:28;;;;;;;0.40;0.30;;;;;;;21.70;36.57;94681.81;5132855;27;20431;-63
2023/04/16 10:41:00;;;;;;;0.40;0.30;;;;;;;21.81;36.09;94680.88;5132921;27;20900;-62
2023/04/16 10:43:30;;;;;;;0.40;0.40;;;;;;;22.00;35.35;94677.44;5133193;27;20427;-62
2023/04/16 10:46:17;;;;;;;0.50;0.33;;;;;;;21.92;35.61;94670.31;5119684;27;20500;-62
2023/04/16 10:48:46;;;;;;;0.40;0.30;;;;;;;22.52;35.58;94668.72;5132872;27;20815;-61
2023/04/16 10:51:28;;;;;;;0.40;0.30;;;;;;;22.30;35.92;94667.56;5133202;27;20431;-61
2023/04/16 10:53:57;;;;;;;0.30;0.20;;;;;;;23.27;32.78;94664.16;5132304;27;20554;-61
2023/04/16 10:56:27;;;;;;;0.40;0.20;;;;;;;21.75;34.43;94619.47;5132947;27;20473;-61
2023/04/16 10:58:56;;;;;;;0.33;0.27;;;;;;;21.43;34.78;94672.75;5106573;27;20803;-61
2023/04/16 11:01:32;;;;;;;0.40;0.30;;;;;;;21.67;34.71;94650.13;5132215;27;20591;-61
2023/04/16 11:04:01;;;;;;;0.40;0.40;;;;;;;21.47;34.37;94652.84;5132734;27;20883;-62
2023/04/16 11:06:31;;;;;;;0.30;0.20;;;;;;;22.03;34.67;94652.44;5132783;27;20480;-62
2023/04/16 11:09:02;;;;;;;0.40;0.30;;;;;;;22.11;35.51;94657.59;5132846;27;20827;-62
2023/04/16 11:11:38;;;;;;;0.47;0.40;;;;;;;22.37;35.63;94650.72;5132997;27;20443;-61
2023/04/16 11:14:07;;;;;;;0.40;0.40;;;;;;;22.20;34.13;94645.78;5132576;28;20954;-62
2023/04/16 11:16:40;;;;;;;0.30;0.20;;;;;;;22.96;35.81;94653.66;5131724;28;20991;-61
2023/04/16 11:19:16;;;;;;;0.40;0.30;;;;;;;23.20;34.00;94657.84;5132644;28;20487;-61
2023/04/16 11:21:46;;;;;;;0.50;0.30;;;;;;;22.92;33.96;94654.75;5132042;27;20978;-61
2023/04/16 11:24:15;;;;;;;0.60;0.60;;;;;;;21.69;34.73;94664.84;5132379;27;20462;-61
2023/04/16 11:26:43;;;;;;;0.40;0.30;;;;;;;21.91;34.85;94666.06;5132369;28;20500;-61
2023/04/16 11:29:15;;;;;;;0.60;0.60;;;;;;;22.22;35.20;94649.69;5132434;28;20437;-61
2023/04/16 11:31:49;;;;;;;0.70;0.50;;;;;;;21.76;36.25;94656.09;5132144;28;20522;-61
2023/04/16 11:34:18;;;;;;;6.43;2.90;;;;;;;21.00;36.64;94656.78;5132505;28;20430;-61
2023/04/16 11:36:49;;;;;;;0.97;0.27;;;;;;;21.72;35.82;94650.66;5132207;27;20439;-61
2023/04/16 11:39:18;;;;;;;1.47;1.37;;;;;;;21.16;36.89;94661.00;5132195;28;20849;-60
2023/04/16 11:41:47;;;;;;;0.40;0.30;;;;;;;21.68;37.00;94662.50;5132700;28;20489;-60
2023/04/16 11:44:20;;;;;;;0.77;0.70;;;;;;;21.16;36.35;94584.75;5105661;28;20491;-60